Time;durP1;ratioP1;P1;durP2;ratioP2;P2;SDS_P1;SDS_P2;PMS_P1;PMS_P2;Temp;Humidity;BMP_temperature;BMP_pressure;BME280_temperature;BME280_humidity;BME280_pressure;Samples;Min_cycle;Max_cycle;Signal;HPM_P1;HPM_P2
2021/11/17 02:28:28;;;;;;;45.30;21.90;;;;;;;3.30;88.31;98986.36;104631;1323;22633;-83
2021/11/17 02:31:40;;;;;;;44.50;20.40;;;;;;;3.31;88.37;98975.02;103790;1316;138248;-83
2021/11/17 02:34:21;;;;;;;44.30;20.50;;;;;;;3.33;88.63;98970.42;105396;1321;22609;-83
2021/11/17 02:37:17;;;;;;;44.20;19.80;;;;;;;3.39;88.91;98969.85;103311;1325;137833;-83
2021/11/17 02:39:53;;;;;;;44.80;21.30;;;;;;;3.43;88.65;98969.73;103852;1319;23389;-83
2021/11/17 02:42:49;;;;;;;49.40;23.10;;;;;;;3.46;88.81;98963.73;104399;1324;138059;-83
2021/11/17 02:45:27;;;;;;;43.70;20.90;;;;;;;3.51;89.04;98960.40;103714;1324;22619;-83
2021/11/17 02:48:27;;;;;;;45.80;21.60;;;;;;;3.55;88.80;98958.00;103571;1316;138911;-83
2021/11/17 02:51:05;;;;;;;48.60;21.80;;;;;;;3.57;88.59;98961.31;104024;1324;23954;-83
2021/11/17 02:54:01;;;;;;;45.60;21.40;;;;;;;3.61;88.68;98956.35;105595;1324;22702;-84
2021/11/17 02:57:06;;;;;;;44.20;21.30;;;;;;;3.62;88.41;98955.23;104136;1325;137621;-83
2021/11/17 02:59:52;;;;;;;42.50;21.30;;;;;;;3.61;88.27;98956.55;104328;1320;22726;-83
2021/11/17 03:02:24;;;;;;;43.10;20.70;;;;;;;3.62;88.11;98957.25;105258;1316;138406;-84
2021/11/17 03:05:19;;;;;;;44.80;20.50;;;;;;;3.60;88.06;98954.63;104300;1320;25418;-84
2021/11/17 03:08:29;;;;;;;44.40;20.10;;;;;;;3.59;88.21;98958.10;105538;1316;137619;-84
2021/11/17 03:11:16;;;;;;;41.10;20.60;;;;;;;3.58;88.11;98964.34;103939;1322;22624;-84
2021/11/17 03:13:49;;;;;;;45.10;20.80;;;;;;;3.54;87.44;98966.31;103810;1321;138134;-84
2021/11/17 03:16:47;;;;;;;39.10;18.70;;;;;;;3.51;87.71;98965.23;105978;1317;22463;-84
2021/11/17 03:19:32;;;;;;;39.90;19.10;;;;;;;3.45;87.68;98968.27;106239;1322;137823;-84
2021/11/17 03:22:33;;;;;;;41.40;19.40;;;;;;;3.40;87.50;98966.92;105137;1316;26588;-84
2021/11/17 03:25:40;;;;;;;47.20;21.90;;;;;;;3.35;87.81;98967.71;103653;1323;137516;-83
2021/11/17 03:28:23;;;;;;;39.70;20.70;;;;;;;3.35;87.69;98962.33;104473;1321;23126;-84
2021/11/17 03:31:12;;;;;;;41.70;20.50;;;;;;;3.34;87.45;98959.30;104657;1319;139041;-84
2021/11/17 03:33:59;;;;;;;35.10;17.10;;;;;;;3.32;87.77;98961.05;104892;1319;22298;-84
2021/11/17 03:36:38;;;;;;;40.50;19.50;;;;;;;3.33;87.83;98956.73;104807;1320;138592;-84
2021/11/17 03:39:14;;;;;;;39.70;19.30;;;;;;;3.28;87.40;98950.60;103713;1321;22930;-84
2021/11/17 03:41:57;;;;;;;39.60;18.70;;;;;;;3.23;87.30;98947.71;103764;1324;22788;-84
2021/11/17 03:45:04;;;;;;;39.30;19.50;;;;;;;3.22;87.71;98953.28;104264;1325;137808;-84
2021/11/17 03:47:56;;;;;;;41.10;20.00;;;;;;;3.22;87.93;98947.45;104634;1325;28994;-84
2021/11/17 03:51:03;;;;;;;41.00;20.40;;;;;;;3.20;87.94;98945.94;104206;1322;137383;-84
2021/11/17 03:54:05;;;;;;;38.20;18.50;;;;;;;3.23;88.02;98946.69;105293;1325;22598;-84
2021/11/17 03:56:41;;;;;;;38.70;18.10;;;;;;;3.25;87.67;98943.36;104217;1320;138491;-84
2021/11/17 03:59:36;;;;;;;32.70;17.10;;;;;;;3.24;87.65;98941.90;103636;1319;22635;-84
2021/11/17 04:02:32;;;;;;;36.80;18.10;;;;;;;3.20;87.31;98939.52;104098;1320;138127;-84
2021/11/17 04:05:40;;;;;;;36.70;17.60;;;;;;;3.15;87.44;98938.70;104643;1321;22815;-84
2021/11/17 04:08:44;;;;;;;38.60;18.80;;;;;;;3.13;87.51;98931.92;104580;1320;138868;-84
2021/11/17 04:11:17;;;;;;;36.20;17.60;;;;;;;3.13;87.54;98933.12;103604;1319;22645;-84
2021/11/17 04:14:13;;;;;;;33.10;17.40;;;;;;;3.09;87.15;98927.92;103742;1319;137718;-84
2021/11/17 04:17:13;;;;;;;33.50;17.00;;;;;;;2.98;86.92;98931.71;103749;1316;22804;-84
2021/11/17 04:19:53;;;;;;;;;;;;;;;2.89;87.32;98934.84;104366;1324;137899;-84
2021/11/17 04:22:46;;;;;;;34.00;16.60;;;;;;;2.84;87.48;98937.09;105917;1325;22470;-84
2021/11/17 04:25:29;;;;;;;29.90;15.80;;;;;;;2.79;87.36;98940.65;103875;1325;138148;-84
2021/11/17 04:28:49;;;;;;;32.70;18.00;;;;;;;2.76;87.71;98943.13;105669;1320;22656;-83
2021/11/17 04:31:36;;;;;;;36.40;18.90;;;;;;;2.74;87.79;98944.45;103741;1317;137469;-84
2021/11/17 04:34:36;;;;;;;35.60;18.20;;;;;;;2.65;87.43;98943.58;104228;1317;22712;-84
2021/11/17 04:37:41;;;;;;;37.30;19.10;;;;;;;2.62;87.73;98942.86;104057;1319;139447;-84
2021/11/17 04:40:43;;;;;;;35.30;19.90;;;;;;;2.63;88.05;98943.29;104770;1319;25422;-83
2021/11/17 04:43:35;;;;;;;35.00;18.30;;;;;;;2.68;88.24;98941.02;103498;1319;138298;-84
2021/11/17 04:46:24;;;;;;;38.90;18.80;;;;;;;2.68;87.82;98948.95;104696;1322;25393;-84
2021/11/17 04:49:04;;;;;;;35.40;18.90;;;;;;;2.67;88.21;98947.25;105495;1322;138237;-84
2021/11/17 04:51:40;;;;;;;33.90;17.80;;;;;;;2.70;88.13;98942.61;106240;1316;25290;-84
2021/11/17 04:54:26;;;;;;;32.40;17.20;;;;;;;2.73;87.68;98940.10;103785;1323;22609;-84
2021/11/17 04:57:22;;;;;;;31.90;16.70;;;;;;;2.66;86.93;98938.71;104097;1316;202309;-84
2021/11/17 05:00:10;;;;;;;32.10;16.50;;;;;;;2.53;86.41;98941.55;105798;1320;30441;-84
2021/11/17 05:02:52;;;;;;;31.70;17.80;;;;;;;2.39;86.52;98933.38;103606;1325;138121;-84
2021/11/17 05:05:44;;;;;;;38.10;17.90;;;;;;;2.31;87.19;98933.27;103971;1320;22569;-84
2021/11/17 05:08:32;;;;;;;34.20;17.40;;;;;;;2.28;87.37;98927.11;104300;1324;138667;-84
2021/11/17 05:11:12;;;;;;;35.60;18.60;;;;;;;2.30;87.92;98928.34;104129;1322;24323;-84
2021/11/17 05:13:54;;;;;;;36.40;19.20;;;;;;;2.37;88.25;98926.30;103978;1321;138216;-84
2021/11/17 05:16:24;;;;;;;35.70;17.90;;;;;;;2.43;88.55;98923.77;105016;1316;23204;-84
2021/11/17 05:19:46;;;;;;;31.90;16.70;;;;;;;2.45;88.20;98924.56;104564;1320;138441;-84
2021/11/17 05:22:24;;;;;;;29.70;16.30;;;;;;;2.53;88.39;98930.42;103890;1321;22761;-84
2021/11/17 05:25:29;;;;;;;31.80;17.00;;;;;;;2.60;88.51;98927.98;103646;1322;138396;-84
2021/11/17 05:28:22;;;;;;;29.60;16.20;;;;;;;2.65;88.44;98928.60;103838;1319;22588;-84
2021/11/17 05:31:13;;;;;;;31.20;16.50;;;;;;;2.69;88.32;98927.37;105071;1317;137939;-84
2021/11/17 05:33:58;;;;;;;30.30;16.70;;;;;;;2.71;88.22;98930.80;103964;1316;22634;-84
2021/11/17 05:36:49;;;;;;;32.00;16.80;;;;;;;2.71;87.61;98930.35;104336;1316;138677;-84
2021/11/17 05:39:31;;;;;;;29.40;15.50;;;;;;;2.65;87.34;98930.09;104584;1319;22628;-84
2021/11/17 05:42:50;;;;;;;30.00;16.40;;;;;;;2.60;87.17;98928.69;103817;1321;24295;-84
2021/11/17 05:45:35;;;;;;;29.10;15.70;;;;;;;2.48;86.89;98927.41;103727;1318;23535;-84
2021/11/17 05:48:28;;;;;;;30.30;16.80;;;;;;;2.37;87.15;98928.89;104535;1325;22675;-85
2021/11/17 05:51:23;;;;;;;32.50;17.10;;;;;;;2.35;87.55;98933.64;103491;1318;139161;-84
2021/11/17 05:54:12;;;;;;;28.80;16.20;;;;;;;2.35;87.59;98930.98;103991;1316;24323;-84
2021/11/17 05:56:52;;;;;;;29.70;15.80;;;;;;;2.35;87.61;98927.19;103837;1318;138287;-85
2021/11/17 05:59:31;;;;;;;30.10;15.70;;;;;;;2.34;87.51;98934.63;103767;1321;22646;-84
2021/11/17 06:02:13;;;;;;;35.30;17.60;;;;;;;2.35;87.66;98941.17;104282;1320;137945;-85
2021/11/17 06:04:40;;;;;;;32.10;16.90;;;;;;;2.35;87.63;98944.02;104902;1322;22577;-85
2021/11/17 06:07:07;;;;;;;26.70;15.90;;;;;;;2.38;87.77;98947.80;104472;1322;140074;-84
2021/11/17 06:09:33;;;;;;;29.60;17.00;;;;;;;2.40;87.75;98947.50;105157;1319;23343;-85
2021/11/17 06:12:04;;;;;;;35.10;17.60;;;;;;;2.44;87.94;98948.40;105030;1318;23226;-85
2021/11/17 06:14:35;;;;;;;27.50;16.40;;;;;;;2.45;88.01;98950.86;103764;1316;138640;-84
2021/11/17 06:17:19;;;;;;;33.60;18.30;;;;;;;2.47;87.83;98955.85;103868;1316;22573;-84
2021/11/17 06:19:49;;;;;;;31.70;16.20;;;;;;;2.45;87.32;98958.75;104539;1319;139202;-84
2021/11/17 06:22:19;;;;;;;26.70;15.70;;;;;;;2.45;87.23;98959.40;103433;1322;25169;-84
2021/11/17 06:25:08;;;;;;;30.20;16.20;;;;;;;2.44;87.43;98956.39;105047;1325;138534;-84
2021/11/17 06:27:40;;;;;;;31.30;17.40;;;;;;;2.46;87.42;98959.00;104650;1320;22602;-84
2021/11/17 06:30:11;;;;;;;29.90;17.20;;;;;;;2.49;87.69;98959.46;105435;1322;22650;-84
2021/11/17 06:32:38;;;;;;;30.60;16.60;;;;;;;2.53;87.81;98962.23;104403;1321;138678;-84
2021/11/17 06:35:07;;;;;;;28.00;16.10;;;;;;;2.55;87.47;98959.09;104255;1321;22302;-84
2021/11/17 06:37:34;;;;;;;28.30;15.80;;;;;;;2.56;87.49;98957.33;104823;1322;137995;-84
2021/11/17 06:40:06;;;;;;;31.60;17.40;;;;;;;2.59;87.82;98960.89;105227;1324;22423;-84
2021/11/17 06:42:40;;;;;;;31.20;17.50;;;;;;;2.62;87.54;98964.56;104925;1325;22575;-84
2021/11/17 06:45:37;;;;;;;28.50;16.00;;;;;;;2.65;87.29;98962.39;103703;1322;138623;-83
2021/11/17 06:48:06;;;;;;;29.60;16.20;;;;;;;2.68;86.96;98963.14;103798;1319;24289;-84
2021/11/17 06:50:35;;;;;;;27.80;15.70;;;;;;;2.72;87.17;98959.48;104762;1319;138233;-83
2021/11/17 06:53:03;;;;;;;;;;;;;;;2.72;87.25;98959.44;104852;1318;22806;-84
2021/11/17 06:55:30;;;;;;;27.20;15.70;;;;;;;2.74;87.42;98961.66;105335;1321;124415;-84
2021/11/17 06:57:57;;;;;;;29.50;17.10;;;;;;;2.72;87.01;98962.06;103729;1317;22656;-84
2021/11/17 07:00:26;;;;;;;26.90;15.20;;;;;;;2.69;86.64;98964.48;104450;1318;23051;-84
2021/11/17 07:02:54;;;;;;;;;;;;;;;2.64;86.48;98966.31;103410;1323;138615;-83
2021/11/17 07:05:34;;;;;;;28.60;16.00;;;;;;;2.58;86.32;98964.96;105117;1319;23753;-84
2021/11/17 07:08:04;;;;;;;28.90;16.80;;;;;;;2.55;86.62;98963.26;103698;1322;138059;-84
2021/11/17 07:10:45;;;;;;;32.50;17.70;;;;;;;2.54;87.01;98961.17;103542;1320;22581;-84
2021/11/17 07:13:12;;;;;;;32.90;19.00;;;;;;;2.59;87.20;98964.19;104024;1319;138999;-84
2021/11/17 07:15:39;;;;;;;32.30;17.30;;;;;;;2.64;87.31;98963.77;104653;1322;24276;-84
2021/11/17 07:18:09;;;;;;;32.30;17.80;;;;;;;2.68;86.74;98968.52;104379;1322;24215;-84
2021/11/17 07:20:41;;;;;;;35.00;18.60;;;;;;;2.68;86.90;98964.88;105781;1316;137982;-84
2021/11/17 07:23:08;;;;;;;30.80;16.90;;;;;;;2.70;86.69;98962.47;104611;1322;22596;-84
2021/11/17 07:25:36;;;;;;;34.40;19.30;;;;;;;2.69;86.46;98960.84;103798;1316;137401;-84
2021/11/17 07:28:03;;;;;;;32.20;18.50;;;;;;;2.71;86.89;98956.08;103860;1324;25396;-84
2021/11/17 07:30:38;;;;;;;31.90;18.30;;;;;;;2.76;86.44;98957.73;104247;1316;22731;-84
2021/11/17 07:33:07;;;;;;;29.80;16.40;;;;;;;2.71;85.91;98956.15;104797;1320;138752;-84
2021/11/17 07:35:37;;;;;;;34.40;19.00;;;;;;;2.70;86.21;98958.01;105592;1318;22647;-84
2021/11/17 07:38:12;;;;;;;32.30;18.60;;;;;;;2.69;86.12;98963.48;104379;1319;138019;-84
2021/11/17 07:40:44;;;;;;;36.00;19.00;;;;;;;2.73;86.47;98965.25;104104;1322;22774;-84
2021/11/17 07:43:13;;;;;;;34.30;18.20;;;;;;;2.79;86.88;98966.67;104043;1322;138811;-84
2021/11/17 07:45:43;;;;;;;33.90;18.70;;;;;;;2.81;86.12;98965.27;104192;1320;22645;-84
2021/11/17 07:48:13;;;;;;;32.20;18.20;;;;;;;2.80;86.00;98969.41;105202;1318;22717;-84
2021/11/17 07:50:42;;;;;;;34.30;19.60;;;;;;;2.80;86.22;98971.91;103592;1323;138166;-84
2021/11/17 07:53:25;;;;;;;38.50;20.30;;;;;;;2.83;86.43;98971.38;103612;1316;22674;-84
2021/11/17 07:55:54;;;;;;;35.10;19.00;;;;;;;2.84;86.78;98969.08;103910;1316;139021;-84
2021/11/17 07:58:24;;;;;;;38.10;19.50;;;;;;;2.90;86.87;98965.94;104079;1316;22705;-84
2021/11/17 08:00:54;;;;;;;34.70;19.60;;;;;;;2.95;87.01;98963.46;104070;1319;22676;-84
2021/11/17 08:03:38;;;;;;;36.00;19.70;;;;;;;3.01;86.88;98961.68;103907;1321;138611;-85
2021/11/17 08:06:07;;;;;;;42.60;21.90;;;;;;;3.06;87.05;98967.26;103502;1319;22619;-84
2021/11/17 08:08:37;;;;;;;37.10;20.00;;;;;;;3.12;86.96;98968.42;104110;1316;138157;-84
2021/11/17 08:11:07;;;;;;;36.80;18.50;;;;;;;3.19;86.88;98967.61;103566;1320;22729;-84
2021/11/17 08:13:37;;;;;;;34.50;19.00;;;;;;;3.26;86.86;98967.00;103642;1319;138689;-84
2021/11/17 08:16:04;;;;;;;;;;;;;;;3.32;86.85;98968.38;105465;1320;22618;-84
2021/11/17 08:18:33;;;;;;;36.40;18.70;;;;;;;3.36;86.55;98967.70;105845;1322;22549;-84
2021/11/17 08:21:01;;;;;;;39.00;20.80;;;;;;;3.39;86.58;98969.72;103867;1319;137841;-84
2021/11/17 08:23:28;;;;;;;37.40;20.40;;;;;;;3.42;86.50;98967.52;104957;1323;22661;-84
2021/11/17 08:25:56;;;;;;;39.70;21.30;;;;;;;3.45;85.90;98963.66;104272;1322;138096;-84
2021/11/17 08:28:23;;;;;;;34.40;19.70;;;;;;;3.47;86.12;98963.87;103792;1316;24298;-84
2021/11/17 08:30:51;;;;;;;38.60;20.30;;;;;;;3.49;85.67;98962.23;104282;1319;22462;-84
2021/11/17 08:33:19;;;;;;;38.90;20.40;;;;;;;3.47;85.48;98958.55;104557;1320;137468;-84
2021/11/17 08:35:50;;;;;;;35.40;20.60;;;;;;;3.42;85.23;98962.52;103736;1319;22773;-85
2021/11/17 08:38:21;;;;;;;42.00;22.00;;;;;;;3.36;85.23;98961.23;103534;1319;138522;-84
2021/11/17 08:40:53;;;;;;;39.00;21.10;;;;;;;3.40;85.55;98964.02;103831;1316;22610;-84
2021/11/17 08:43:20;;;;;;;38.20;20.70;;;;;;;3.42;85.60;98961.40;105188;1321;138145;-84
2021/11/17 08:45:48;;;;;;;40.70;21.50;;;;;;;3.37;85.06;98960.75;104338;1318;22869;-85
2021/11/17 08:48:18;;;;;;;40.30;22.00;;;;;;;3.29;85.02;98961.18;104526;1322;23324;-84
2021/11/17 08:50:46;;;;;;;41.00;23.20;;;;;;;3.30;85.52;98959.90;105184;1320;138688;-84
2021/11/17 08:53:16;;;;;;;38.60;21.50;;;;;;;3.33;85.40;98964.69;104249;1317;23417;-85
2021/11/17 08:55:44;;;;;;;41.20;21.70;;;;;;;3.39;85.67;98963.35;104582;1318;139167;-85
2021/11/17 08:58:18;;;;;;;41.00;22.10;;;;;;;3.46;85.73;98962.77;103984;1322;22583;-85
2021/11/17 09:00:46;;;;;;;42.30;22.40;;;;;;;3.48;85.30;98960.68;104779;1324;22628;-84
2021/11/17 09:03:28;;;;;;;49.00;24.80;;;;;;;3.44;84.95;98967.96;103678;1318;137636;-84
2021/11/17 09:05:58;;;;;;;50.00;26.10;;;;;;;3.42;85.11;98963.25;104666;1318;22615;-84
2021/11/17 09:08:39;;;;;;;48.50;23.10;;;;;;;3.42;84.86;98964.05;105001;1316;138065;-85
2021/11/17 09:11:10;;;;;;;50.30;25.20;;;;;;;3.41;85.22;98964.16;104528;1321;22579;-85
2021/11/17 09:13:39;;;;;;;47.10;25.50;;;;;;;3.50;86.15;98964.19;103857;1322;137789;-83
2021/11/17 09:16:08;;;;;;;50.70;25.50;;;;;;;3.62;86.41;98964.05;103910;1318;22747;-85
2021/11/17 09:18:37;;;;;;;51.40;26.10;;;;;;;3.71;85.91;98956.70;105313;1322;24279;-85
2021/11/17 09:21:08;;;;;;;48.40;24.60;;;;;;;3.80;85.72;98960.71;104843;1325;138684;-86
2021/11/17 09:23:36;;;;;;;43.00;23.10;;;;;;;3.91;86.01;98959.16;104119;1325;22601;-86
2021/11/17 09:26:21;;;;;;;51.70;25.60;;;;;;;4.00;85.68;98962.61;103578;1318;137694;-86
2021/11/17 09:28:52;;;;;;;42.30;23.40;;;;;;;4.10;85.91;98959.61;104715;1316;24265;-86
2021/11/17 09:31:20;;;;;;;46.70;24.40;;;;;;;4.22;85.73;98959.90;104216;1316;138510;-88
2021/11/17 09:33:47;;;;;;;46.10;23.80;;;;;;;4.29;85.35;98958.44;104623;1322;25354;-86
2021/11/17 09:36:17;;;;;;;46.70;23.50;;;;;;;4.40;85.35;98956.22;104074;1319;23109;-87
2021/11/17 09:38:49;;;;;;;51.00;27.20;;;;;;;4.47;85.14;98959.30;103245;1325;137718;-89
2021/11/17 09:41:20;;;;;;;48.00;25.20;;;;;;;4.51;84.90;98962.00;105114;1319;22732;-87
2021/11/17 09:43:54;;;;;;;49.80;26.10;;;;;;;4.53;84.72;98964.64;104000;1323;138035;-86
2021/11/17 09:46:25;;;;;;;48.90;27.50;;;;;;;4.52;84.15;98962.39;105160;1319;22565;-88
2021/11/17 09:49:18;;;;;;;49.30;25.70;;;;;;;4.52;83.92;98963.16;104074;1316;23675;-85
2021/11/17 09:51:52;;;;;;;51.30;25.40;;;;;;;4.52;84.01;98952.27;103905;1318;138162;-87
2021/11/17 09:55:04;;;;;;;53.00;27.20;;;;;;;4.51;83.72;98949.02;104836;1320;22641;-85
2021/11/17 09:57:34;;;;;;;55.90;29.70;;;;;;;4.58;84.19;98949.82;104993;1331;137955;-86
2021/11/17 10:00:15;;;;;;;57.60;29.00;;;;;;;4.65;84.39;98942.83;103132;1328;22597;-91
2021/11/17 10:02:49;;;;;;;56.30;28.00;;;;;;;4.69;84.31;98945.39;103020;1324;138790;-85
2021/11/17 10:14:41;;;;;;;56.10;28.30;;;;;;;4.79;83.68;98941.73;103110;1322;138574;-85
2021/11/17 10:17:29;;;;;;;47.00;26.20;;;;;;;4.86;83.76;98930.59;105221;1322;22731;-85
2021/11/17 10:20:25;;;;;;;52.80;27.40;;;;;;;4.91;83.41;98925.94;103255;1322;138357;-85
2021/11/17 10:23:05;;;;;;;53.00;26.70;;;;;;;5.03;83.76;98919.58;103597;1322;22670;-85
2021/11/17 10:25:58;;;;;;;49.90;27.00;;;;;;;5.12;83.85;98921.66;104320;1325;138674;-85
2021/11/17 10:28:55;;;;;;;53.60;28.80;;;;;;;5.26;83.47;98919.16;103644;1323;22695;-85
2021/11/17 10:31:24;;;;;;;54.20;26.10;;;;;;;5.42;83.11;98915.89;104174;1323;138397;-85
2021/11/17 10:34:19;;;;;;;47.40;24.30;;;;;;;5.42;82.01;98916.88;104388;1318;22565;-85
2021/11/17 10:37:07;;;;;;;51.20;26.40;;;;;;;5.31;81.65;98909.27;104861;1319;30537;-85
2021/11/17 10:39:37;;;;;;;50.40;25.30;;;;;;;5.29;82.09;98914.66;104356;1322;137511;-85
2021/11/17 10:42:04;;;;;;;53.00;25.70;;;;;;;5.24;81.69;98911.92;103791;1318;22635;-85
2021/11/17 10:44:46;;;;;;;55.20;27.60;;;;;;;5.16;81.48;98912.52;105154;1322;138565;-85
2021/11/17 10:47:27;;;;;;;49.10;25.20;;;;;;;5.11;82.03;98918.67;104641;1316;30166;-85
2021/11/17 10:50:11;;;;;;;59.40;30.20;;;;;;;5.17;82.40;98918.91;103594;1316;138316;-85
2021/11/17 10:52:56;;;;;;;53.40;28.90;;;;;;;5.27;82.57;98912.70;103770;1318;23461;-85
2021/11/17 10:55:33;;;;;;;47.60;24.40;;;;;;;5.42;82.71;98911.08;104346;1318;137872;-85
2021/11/17 10:58:03;;;;;;;57.10;27.50;;;;;;;5.54;82.43;98909.12;104180;1324;30841;-85
2021/11/17 11:00:51;;;;;;;48.70;26.60;;;;;;;5.63;82.86;98905.96;104671;1319;22948;-85
2021/11/17 11:03:21;;;;;;;50.30;27.50;;;;;;;5.78;82.99;98904.15;104732;1319;138993;-85
2021/11/17 11:05:49;;;;;;;;;;;;;;;5.92;82.38;98901.15;103786;1319;23708;-85
2021/11/17 11:08:55;;;;;;;51.50;26.70;;;;;;;6.05;81.93;98897.27;104400;1318;124394;-85
2021/11/17 11:11:23;;;;;;;49.30;27.60;;;;;;;6.20;81.40;98892.75;104894;1321;23139;-85
2021/11/17 11:14:19;;;;;;;48.00;26.80;;;;;;;6.30;80.72;98892.02;104243;1318;138071;-85
2021/11/17 11:17:13;;;;;;;56.50;30.20;;;;;;;6.29;79.93;98889.07;104108;1318;22789;-85
2021/11/17 11:19:40;;;;;;;49.60;27.60;;;;;;;6.35;80.25;98886.48;105432;1319;137745;-84
2021/11/17 11:22:11;;;;;;;56.30;28.60;;;;;;;6.44;80.58;98886.69;103678;1322;22583;-85
2021/11/17 11:24:42;;;;;;;58.90;29.40;;;;;;;6.54;80.81;98883.58;104715;1325;24256;-84
2021/11/17 11:27:17;;;;;;;46.50;27.90;;;;;;;6.67;80.85;98879.88;103671;1320;138205;-85
2021/11/17 11:30:09;;;;;;;47.50;27.70;;;;;;;6.77;80.68;98875.78;104612;1321;25517;-85
2021/11/17 11:32:43;;;;;;;53.20;27.30;;;;;;;6.87;80.52;98876.31;104424;1322;138158;-84
2021/11/17 11:35:10;;;;;;;52.90;27.10;;;;;;;6.96;80.75;98875.30;104287;1318;23358;-85
2021/11/17 11:37:36;;;;;;;50.90;28.60;;;;;;;7.06;80.03;98869.19;105466;1319;137869;-82
2021/11/17 11:40:06;;;;;;;48.70;25.90;;;;;;;7.15;79.10;98866.91;104473;1323;22682;-82
2021/11/17 11:43:07;;;;;;;53.40;26.30;;;;;;;7.22;78.57;98864.52;103740;1322;22583;-83
2021/11/17 11:45:39;;;;;;;40.40;23.10;;;;;;;7.32;79.05;98860.77;104092;1319;138060;-83
2021/11/17 11:48:25;;;;;;;46.50;24.00;;;;;;;7.38;78.77;98857.89;103866;1319;26514;-83
2021/11/17 11:51:07;;;;;;;47.00;24.60;;;;;;;7.48;78.53;98859.46;103547;1318;138574;-83
2021/11/17 11:54:26;;;;;;;52.90;25.90;;;;;;;7.58;77.37;98854.25;104068;1319;22575;-83
2021/11/17 11:57:02;;;;;;;51.10;27.60;;;;;;;7.56;77.09;98851.26;104356;1319;138338;-83
2021/11/17 11:59:30;;;;;;;51.10;28.80;;;;;;;7.60;76.92;98851.77;105087;1320;22484;-83
2021/11/17 12:02:09;;;;;;;48.40;26.50;;;;;;;7.63;77.10;98850.73;104362;1319;138229;-83
2021/11/17 12:04:43;;;;;;;37.50;19.70;;;;;;;7.68;76.59;98853.78;104477;1319;25366;-83
2021/11/17 12:07:21;;;;;;;39.30;21.10;;;;;;;7.73;75.52;98856.52;105078;1323;22486;-83
2021/11/17 12:10:26;;;;;;;36.60;21.10;;;;;;;7.76;74.85;98859.62;103900;1319;137676;-83
2021/11/17 12:12:53;;;;;;;31.80;20.40;;;;;;;7.80;74.30;98867.44;103324;1321;25384;-83
2021/11/17 12:15:26;;;;;;;36.90;20.90;;;;;;;7.82;74.07;98870.82;103631;1323;138242;-83
2021/11/17 12:18:12;;;;;;;38.70;21.80;;;;;;;7.85;74.34;98866.55;103692;1319;23868;-83
2021/11/17 12:20:59;;;;;;;37.80;22.00;;;;;;;7.90;73.95;98857.84;104048;1322;137716;-83
2021/11/17 12:23:42;;;;;;;37.50;21.60;;;;;;;7.98;73.77;98854.61;104034;1322;22650;-83
2021/11/17 12:26:27;;;;;;;35.80;21.90;;;;;;;8.06;73.76;98858.57;103428;1321;138606;-83
2021/11/17 12:29:14;;;;;;;38.70;23.00;;;;;;;8.08;73.00;98858.67;104157;1318;23368;-84
2021/11/17 12:31:53;;;;;;;38.90;23.70;;;;;;;8.13;73.18;98858.44;103307;1321;138905;-83
2021/11/17 12:34:49;;;;;;;41.30;24.10;;;;;;;8.20;72.95;98856.63;103772;1319;22663;-84
2021/11/17 12:37:46;;;;;;;40.10;24.10;;;;;;;8.22;72.98;98853.54;103632;1319;24296;-83
2021/11/17 12:40:51;;;;;;;40.40;22.50;;;;;;;8.15;72.94;98858.23;103964;1322;31440;-83
2021/11/17 12:43:29;;;;;;;39.40;23.30;;;;;;;8.05;72.54;98856.27;103775;1318;22624;-83
2021/11/17 12:46:26;;;;;;;38.80;24.40;;;;;;;7.93;73.21;98849.05;103729;1318;137698;-83
2021/11/17 12:49:18;;;;;;;41.80;22.20;;;;;;;7.86;73.61;98844.77;103757;1322;22716;-83
2021/11/17 12:52:04;;;;;;;42.10;24.80;;;;;;;7.75;73.60;98846.23;104407;1319;137634;-83
2021/11/17 12:54:52;;;;;;;45.70;24.20;;;;;;;7.67;73.76;98848.77;103773;1323;22613;-83
2021/11/17 12:57:23;;;;;;;38.10;20.50;;;;;;;7.64;74.23;98845.79;102960;1325;237051;-84
2021/11/17 12:59:52;;;;;;;;;;;;;;;7.60;74.35;98846.35;103310;1318;25339;-83
2021/11/17 13:02:22;;;;;;;39.80;23.70;;;;;;;7.55;74.73;98852.52;103092;1321;124467;-83
2021/11/17 13:04:55;;;;;;;45.80;25.20;;;;;;;7.52;75.26;98854.36;103322;1318;22613;-83
2021/11/17 13:07:42;;;;;;;39.90;23.30;;;;;;;7.50;75.22;98855.50;103245;1316;138003;-83
2021/11/17 13:10:29;;;;;;;46.10;25.10;;;;;;;7.49;75.37;98854.45;103055;1325;25368;-83
2021/11/17 13:13:15;;;;;;;45.60;24.70;;;;;;;7.45;75.59;98847.64;103933;1316;24378;-83
2021/11/17 13:16:06;;;;;;;56.70;26.10;;;;;;;7.40;75.93;98850.91;104188;1316;22580;-84
2021/11/17 13:18:44;;;;;;;43.10;22.10;;;;;;;7.37;76.03;98847.79;103738;1316;23122;-84
2021/11/17 13:21:17;;;;;;;48.70;25.90;;;;;;;7.38;76.21;98845.88;103906;1323;138461;-84
2021/11/17 13:23:59;;;;;;;57.90;26.30;;;;;;;7.36;76.00;98844.64;103961;1316;24315;-84
2021/11/17 13:26:36;;;;;;;47.60;25.60;;;;;;;7.34;76.25;98840.81;103495;1316;137879;-83
2021/11/17 13:29:26;;;;;;;49.50;26.00;;;;;;;7.32;76.11;98845.77;103102;1319;138673;-83
2021/11/17 13:32:07;;;;;;;55.20;27.70;;;;;;;7.31;76.38;98844.70;103261;1316;30837;-83
2021/11/17 13:34:50;;;;;;;58.70;28.20;;;;;;;7.25;76.78;98842.92;103205;1316;22583;-83
2021/11/17 13:37:22;;;;;;;52.80;27.60;;;;;;;7.22;77.09;98840.77;103391;1316;26601;-83
2021/11/17 13:39:59;;;;;;;63.50;29.90;;;;;;;7.19;77.23;98839.66;103495;1316;25363;-83
2021/11/17 13:42:28;;;;;;;60.60;29.80;;;;;;;7.17;77.43;98845.11;103236;1323;25396;-83
2021/11/17 13:44:57;;;;;;;75.30;33.50;;;;;;;7.16;77.74;98842.24;103198;1322;24254;-83
2021/11/17 13:47:27;;;;;;;81.20;36.60;;;;;;;7.11;77.56;98843.63;103511;1319;25396;-83
2021/11/17 13:49:57;;;;;;;89.20;40.40;;;;;;;7.03;77.41;98849.69;103413;1319;146228;-84
2021/11/17 13:52:31;;;;;;;107.70;46.30;;;;;;;6.98;77.94;98848.46;103338;1318;24297;-83
2021/11/17 13:55:00;;;;;;;95.40;42.70;;;;;;;6.93;78.18;98843.73;103212;1319;138637;-83
2021/11/17 13:57:28;;;;;;;93.30;40.90;;;;;;;6.91;78.16;98845.48;103242;1323;144872;-83
2021/11/17 14:00:10;;;;;;;96.20;42.00;;;;;;;6.85;78.51;98845.23;103448;1319;23130;-83
2021/11/17 14:02:40;;;;;;;104.10;42.30;;;;;;;6.81;78.48;98850.34;103353;1318;137634;-83
2021/11/17 14:05:08;;;;;;;105.40;45.50;;;;;;;6.76;78.65;98847.17;103297;1318;24490;-83
2021/11/17 14:07:35;;;;;;;107.10;43.70;;;;;;;6.72;79.15;98847.46;103266;1318;144765;-85
2021/11/17 14:10:05;;;;;;;110.30;48.30;;;;;;;6.69;79.12;98843.94;103333;1323;22598;-84
2021/11/17 14:12:33;;;;;;;115.10;46.40;;;;;;;6.66;78.86;98845.48;103542;1319;30757;-83
2021/11/17 14:15:02;;;;;;;116.60;48.30;;;;;;;6.64;79.37;98839.98;102981;1323;137873;-83
2021/11/17 14:17:30;;;;;;;110.30;48.30;;;;;;;6.63;79.39;98843.45;103363;1316;22577;-83
2021/11/17 14:19:58;;;;;;;120.20;49.40;;;;;;;6.63;79.64;98842.11;102978;1319;138278;-84
2021/11/17 14:22:25;;;;;;;123.40;48.60;;;;;;;6.61;79.77;98848.36;103332;1316;22583;-83
2021/11/17 14:24:56;;;;;;;128.50;51.70;;;;;;;6.55;79.68;98846.23;103298;1316;22587;-86
2021/11/17 14:27:24;;;;;;;115.10;45.90;;;;;;;6.54;79.86;98844.45;103236;1316;138701;-85
2021/11/17 14:30:14;;;;;;;108.60;45.50;;;;;;;6.49;79.88;98838.91;103270;1323;22783;-85
2021/11/17 14:32:44;;;;;;;100.00;44.70;;;;;;;6.45;79.98;98840.67;103052;1321;138467;-82
2021/11/17 14:35:13;;;;;;;;;;;;;;;6.42;80.16;98835.55;102974;1323;22651;-83
2021/11/17 14:37:42;;;;;;;102.90;44.30;;;;;;;6.37;80.17;98833.71;103066;1322;124948;-82
2021/11/17 14:40:11;;;;;;;;;;;;;;;6.29;80.16;98830.27;103258;1321;22613;-85
2021/11/17 14:42:38;;;;;;;110.10;45.40;;;;;;;6.22;80.32;98830.84;103350;1319;25655;-82
2021/11/17 14:45:07;;;;;;;96.10;41.80;;;;;;;6.18;80.42;98834.08;103175;1317;138400;-83
2021/11/17 14:47:35;;;;;;;96.30;45.00;;;;;;;6.16;80.61;98836.38;103719;1318;23337;-84